sensor_id;sensor_type;location;lat;lon;timestamp;temperature;humidity
19039;DHT22;9652;49.014;12.052;2023-10-08T00:02:10;19.10;55.20
19039;DHT22;9652;49.014;12.052;2023-10-08T00:04:40;19.10;55.20
19039;DHT22;9652;49.014;12.052;2023-10-08T00:07:10;19.10;55.30
19039;DHT22;9652;49.014;12.052;2023-10-08T00:09:37;19.10;55.30
19039;DHT22;9652;49.014;12.052;2023-10-08T00:12:06;19.10;55.30
19039;DHT22;9652;49.014;12.052;2023-10-08T00:14:34;19.00;55.40
19039;DHT22;9652;49.014;12.052;2023-10-08T00:17:11;19.00;55.40
19039;DHT22;9652;49.014;12.052;2023-10-08T00:19:39;19.00;55.40
19039;DHT22;9652;49.014;12.052;2023-10-08T00:22:08;19.00;55.40
19039;DHT22;9652;49.014;12.052;2023-10-08T00:24:36;19.00;55.40
19039;DHT22;9652;49.014;12.052;2023-10-08T00:27:08;19.00;55.40
19039;DHT22;9652;49.014;12.052;2023-10-08T00:29:36;19.00;55.40
19039;DHT22;9652;49.014;12.052;2023-10-08T00:32:06;19.00;55.40
19039;DHT22;9652;49.014;12.052;2023-10-08T00:34:39;18.90;55.30
19039;DHT22;9652;49.014;12.052;2023-10-08T00:37:09;18.90;55.40
19039;DHT22;9652;49.014;12.052;2023-10-08T00:39:40;18.90;55.40
19039;DHT22;9652;49.014;12.052;2023-10-08T00:42:09;18.90;55.40
19039;DHT22;9652;49.014;12.052;2023-10-08T00:44:38;18.90;55.40
19039;DHT22;9652;49.014;12.052;2023-10-08T00:47:15;19.00;55.50
19039;DHT22;9652;49.014;12.052;2023-10-08T00:49:46;18.90;55.50
19039;DHT22;9652;49.014;12.052;2023-10-08T00:52:21;18.90;55.50
19039;DHT22;9652;49.014;12.052;2023-10-08T00:55:04;18.90;55.60
19039;DHT22;9652;49.014;12.052;2023-10-08T00:57:42;18.90;55.50
19039;DHT22;9652;49.014;12.052;2023-10-08T01:00:14;19.00;55.50
19039;DHT22;9652;49.014;12.052;2023-10-08T01:02:46;19.00;55.60
19039;DHT22;9652;49.014;12.052;2023-10-08T01:05:25;19.00;55.60
19039;DHT22;9652;49.014;12.052;2023-10-08T01:07:56;18.90;55.60
19039;DHT22;9652;49.014;12.052;2023-10-08T01:10:24;18.90;55.60
19039;DHT22;9652;49.014;12.052;2023-10-08T01:12:53;18.90;55.60
19039;DHT22;9652;49.014;12.052;2023-10-08T01:15:30;18.90;55.70
19039;DHT22;9652;49.014;12.052;2023-10-08T01:18:02;18.90;55.70
19039;DHT22;9652;49.014;12.052;2023-10-08T01:20:30;18.90;55.80
19039;DHT22;9652;49.014;12.052;2023-10-08T01:23:04;18.90;55.80
19039;DHT22;9652;49.014;12.052;2023-10-08T01:25:36;18.90;55.80
19039;DHT22;9652;49.014;12.052;2023-10-08T01:28:05;18.90;55.90
19039;DHT22;9652;49.014;12.052;2023-10-08T01:30:41;18.90;55.90
19039;DHT22;9652;49.014;12.052;2023-10-08T01:33:12;18.90;56.00
19039;DHT22;9652;49.014;12.052;2023-10-08T01:35:43;18.90;56.00
19039;DHT22;9652;49.014;12.052;2023-10-08T01:38:11;18.90;56.10
19039;DHT22;9652;49.014;12.052;2023-10-08T01:40:40;18.90;56.20
19039;DHT22;9652;49.014;12.052;2023-10-08T01:43:08;18.90;56.20
19039;DHT22;9652;49.014;12.052;2023-10-08T01:45:36;18.90;56.20
19039;DHT22;9652;49.014;12.052;2023-10-08T01:48:07;18.80;56.20
19039;DHT22;9652;49.014;12.052;2023-10-08T01:50:36;18.80;56.30
19039;DHT22;9652;49.014;12.052;2023-10-08T01:53:04;18.80;56.30
19039;DHT22;9652;49.014;12.052;2023-10-08T01:55:36;18.80;56.40
19039;DHT22;9652;49.014;12.052;2023-10-08T01:58:15;18.80;56.40
19039;DHT22;9652;49.014;12.052;2023-10-08T02:00:44;18.80;56.50
19039;DHT22;9652;49.014;12.052;2023-10-08T02:03:13;18.70;56.50
19039;DHT22;9652;49.014;12.052;2023-10-08T02:05:42;18.70;56.60
19039;DHT22;9652;49.014;12.052;2023-10-08T02:08:10;18.70;56.80
19039;DHT22;9652;49.014;12.052;2023-10-08T02:10:41;18.70;56.80
19039;DHT22;9652;49.014;12.052;2023-10-08T02:13:10;18.70;56.90
19039;DHT22;9652;49.014;12.052;2023-10-08T02:15:43;18.60;56.90
19039;DHT22;9652;49.014;12.052;2023-10-08T02:18:11;18.60;57.00
19039;DHT22;9652;49.014;12.052;2023-10-08T02:20:39;18.60;57.00
19039;DHT22;9652;49.014;12.052;2023-10-08T02:23:07;18.60;57.10
19039;DHT22;9652;49.014;12.052;2023-10-08T02:25:36;18.60;57.20
19039;DHT22;9652;49.014;12.052;2023-10-08T02:28:06;18.50;57.10
19039;DHT22;9652;49.014;12.052;2023-10-08T02:30:34;18.50;57.30
19039;DHT22;9652;49.014;12.052;2023-10-08T02:33:02;18.50;57.30
19039;DHT22;9652;49.014;12.052;2023-10-08T02:35:40;18.50;57.30
19039;DHT22;9652;49.014;12.052;2023-10-08T02:38:09;18.50;57.30
19039;DHT22;9652;49.014;12.052;2023-10-08T02:40:38;18.40;57.40
19039;DHT22;9652;49.014;12.052;2023-10-08T02:43:12;18.40;57.40
19039;DHT22;9652;49.014;12.052;2023-10-08T02:45:41;18.40;57.50
19039;DHT22;9652;49.014;12.052;2023-10-08T02:48:13;18.40;57.60
19039;DHT22;9652;49.014;12.052;2023-10-08T02:50:41;18.40;57.60
19039;DHT22;9652;49.014;12.052;2023-10-08T02:53:11;18.30;57.60
19039;DHT22;9652;49.014;12.052;2023-10-08T02:55:39;18.30;57.60
19039;DHT22;9652;49.014;12.052;2023-10-08T02:58:11;18.30;57.70
19039;DHT22;9652;49.014;12.052;2023-10-08T03:00:41;18.30;57.70
19039;DHT22;9652;49.014;12.052;2023-10-08T03:03:08;18.30;57.80
19039;DHT22;9652;49.014;12.052;2023-10-08T03:05:43;18.20;57.80
19039;DHT22;9652;49.014;12.052;2023-10-08T03:08:13;18.20;57.90
19039;DHT22;9652;49.014;12.052;2023-10-08T03:10:45;18.20;57.90
19039;DHT22;9652;49.014;12.052;2023-10-08T03:13:15;18.20;58.00
19039;DHT22;9652;49.014;12.052;2023-10-08T03:15:45;18.20;58.70
19039;DHT22;9652;49.014;12.052;2023-10-08T03:18:34;18.20;58.00
19039;DHT22;9652;49.014;12.052;2023-10-08T03:21:02;18.20;58.00
19039;DHT22;9652;49.014;12.052;2023-10-08T03:23:31;18.20;58.10
19039;DHT22;9652;49.014;12.052;2023-10-08T03:26:01;18.10;58.20
19039;DHT22;9652;49.014;12.052;2023-10-08T03:28:39;18.20;58.30
19039;DHT22;9652;49.014;12.052;2023-10-08T03:31:07;18.10;58.90
19039;DHT22;9652;49.014;12.052;2023-10-08T03:33:42;18.10;58.40
19039;DHT22;9652;49.014;12.052;2023-10-08T03:36:14;18.00;58.50
19039;DHT22;9652;49.014;12.052;2023-10-08T03:38:47;18.00;58.50
19039;DHT22;9652;49.014;12.052;2023-10-08T03:41:18;18.00;58.50
19039;DHT22;9652;49.014;12.052;2023-10-08T03:43:54;18.00;58.60
19039;DHT22;9652;49.014;12.052;2023-10-08T03:46:28;17.90;58.70
19039;DHT22;9652;49.014;12.052;2023-10-08T03:48:56;18.00;58.80
19039;DHT22;9652;49.014;12.052;2023-10-08T03:51:29;17.90;58.90
19039;DHT22;9652;49.014;12.052;2023-10-08T03:54:05;17.90;58.90
19039;DHT22;9652;49.014;12.052;2023-10-08T03:56:46;17.90;59.00
19039;DHT22;9652;49.014;12.052;2023-10-08T03:59:15;17.80;59.10
19039;DHT22;9652;49.014;12.052;2023-10-08T04:01:55;17.80;59.20
19039;DHT22;9652;49.014;12.052;2023-10-08T04:04:26;17.80;59.20
19039;DHT22;9652;49.014;12.052;2023-10-08T04:07:08;17.80;59.20
19039;DHT22;9652;49.014;12.052;2023-10-08T04:09:49;17.80;59.20
19039;DHT22;9652;49.014;12.052;2023-10-08T04:12:25;17.80;59.20
19039;DHT22;9652;49.014;12.052;2023-10-08T04:14:54;17.70;59.20
19039;DHT22;9652;49.014;12.052;2023-10-08T04:17:21;17.70;59.30
19039;DHT22;9652;49.014;12.052;2023-10-08T04:19:49;17.70;59.30
19039;DHT22;9652;49.014;12.052;2023-10-08T04:22:17;17.70;59.40
19039;DHT22;9652;49.014;12.052;2023-10-08T04:24:44;17.60;59.40
19039;DHT22;9652;49.014;12.052;2023-10-08T04:27:13;17.60;59.50
19039;DHT22;9652;49.014;12.052;2023-10-08T04:29:40;17.60;59.50
19039;DHT22;9652;49.014;12.052;2023-10-08T04:32:09;17.60;59.50
19039;DHT22;9652;49.014;12.052;2023-10-08T04:34:46;17.60;59.50
19039;DHT22;9652;49.014;12.052;2023-10-08T04:37:15;17.50;59.40
19039;DHT22;9652;49.014;12.052;2023-10-08T04:39:45;17.50;59.50
19039;DHT22;9652;49.014;12.052;2023-10-08T04:42:20;17.40;59.50
19039;DHT22;9652;49.014;12.052;2023-10-08T04:44:51;17.30;59.50
19039;DHT22;9652;49.014;12.052;2023-10-08T04:47:21;17.40;59.80
19039;DHT22;9652;49.014;12.052;2023-10-08T04:49:58;17.30;59.90
19039;DHT22;9652;49.014;12.052;2023-10-08T04:52:25;17.30;60.00
19039;DHT22;9652;49.014;12.052;2023-10-08T04:54:53;17.30;60.20
19039;DHT22;9652;49.014;12.052;2023-10-08T04:57:22;17.30;60.40
19039;DHT22;9652;49.014;12.052;2023-10-08T04:59:51;17.30;60.40
19039;DHT22;9652;49.014;12.052;2023-10-08T05:02:24;17.30;60.50
19039;DHT22;9652;49.014;12.052;2023-10-08T05:05:00;17.40;60.70
19039;DHT22;9652;49.014;12.052;2023-10-08T05:07:45;17.40;60.70
19039;DHT22;9652;49.014;12.052;2023-10-08T05:10:29;17.40;60.70
19039;DHT22;9652;49.014;12.052;2023-10-08T05:13:10;17.40;60.70
19039;DHT22;9652;49.014;12.052;2023-10-08T05:15:56;17.50;60.80
19039;DHT22;9652;49.014;12.052;2023-10-08T05:18:38;17.40;60.80
19039;DHT22;9652;49.014;12.052;2023-10-08T05:21:33;17.50;61.00
19039;DHT22;9652;49.014;12.052;2023-10-08T05:24:17;17.50;60.80
19039;DHT22;9652;49.014;12.052;2023-10-08T05:26:53;17.50;60.90
19039;DHT22;9652;49.014;12.052;2023-10-08T05:29:40;17.50;60.90
19039;DHT22;9652;49.014;12.052;2023-10-08T05:32:36;17.50;60.90
19039;DHT22;9652;49.014;12.052;2023-10-08T05:35:33;17.60;60.90
19039;DHT22;9652;49.014;12.052;2023-10-08T05:38:17;17.60;60.90
19039;DHT22;9652;49.014;12.052;2023-10-08T05:41:03;17.60;61.10
19039;DHT22;9652;49.014;12.052;2023-10-08T05:43:38;17.50;61.10
19039;DHT22;9652;49.014;12.052;2023-10-08T05:46:21;17.60;61.20
19039;DHT22;9652;49.014;12.052;2023-10-08T05:49:07;17.60;61.20
19039;DHT22;9652;49.014;12.052;2023-10-08T05:52:05;17.60;61.20
19039;DHT22;9652;49.014;12.052;2023-10-08T05:54:51;17.70;61.30
19039;DHT22;9652;49.014;12.052;2023-10-08T05:57:32;17.70;61.30
19039;DHT22;9652;49.014;12.052;2023-10-08T06:00:05;17.70;61.30
19039;DHT22;9652;49.014;12.052;2023-10-08T06:02:50;17.80;61.40
19039;DHT22;9652;49.014;12.052;2023-10-08T06:05:36;17.80;61.20
19039;DHT22;9652;49.014;12.052;2023-10-08T06:08:31;17.90;61.20
19039;DHT22;9652;49.014;12.052;2023-10-08T06:11:15;17.90;61.10
19039;DHT22;9652;49.014;12.052;2023-10-08T06:13:54;18.00;61.10
19039;DHT22;9652;49.014;12.052;2023-10-08T06:16:26;18.30;61.10
19039;DHT22;9652;49.014;12.052;2023-10-08T06:19:07;18.20;61.00
19039;DHT22;9652;49.014;12.052;2023-10-08T06:21:35;18.30;60.90
19039;DHT22;9652;49.014;12.052;2023-10-08T06:24:06;18.30;60.80
19039;DHT22;9652;49.014;12.052;2023-10-08T06:26:37;18.40;60.60
19039;DHT22;9652;49.014;12.052;2023-10-08T06:29:09;18.50;60.60
19039;DHT22;9652;49.014;12.052;2023-10-08T06:31:52;18.50;60.60
19039;DHT22;9652;49.014;12.052;2023-10-08T06:34:21;18.60;60.40
19039;DHT22;9652;49.014;12.052;2023-10-08T06:36:55;18.70;60.50
19039;DHT22;9652;49.014;12.052;2023-10-08T06:39:28;18.80;60.50
19039;DHT22;9652;49.014;12.052;2023-10-08T06:42:13;18.90;60.50
19039;DHT22;9652;49.014;12.052;2023-10-08T06:44:41;19.00;60.50
19039;DHT22;9652;49.014;12.052;2023-10-08T06:47:10;19.10;60.40
19039;DHT22;9652;49.014;12.052;2023-10-08T06:49:37;19.20;60.20
19039;DHT22;9652;49.014;12.052;2023-10-08T06:52:05;19.20;60.00
19039;DHT22;9652;49.014;12.052;2023-10-08T06:54:38;19.30;59.90
19039;DHT22;9652;49.014;12.052;2023-10-08T06:57:05;19.40;59.90
19039;DHT22;9652;49.014;12.052;2023-10-08T06:59:39;19.40;59.80
19039;DHT22;9652;49.014;12.052;2023-10-08T07:02:08;19.50;59.70
19039;DHT22;9652;49.014;12.052;2023-10-08T07:04:35;19.50;59.50
19039;DHT22;9652;49.014;12.052;2023-10-08T07:07:02;19.60;59.40
19039;DHT22;9652;49.014;12.052;2023-10-08T07:09:34;19.60;59.30
19039;DHT22;9652;49.014;12.052;2023-10-08T07:12:03;19.60;59.30
19039;DHT22;9652;49.014;12.052;2023-10-08T07:14:31;19.70;59.10
19039;DHT22;9652;49.014;12.052;2023-10-08T07:17:00;19.70;59.00
19039;DHT22;9652;49.014;12.052;2023-10-08T07:19:33;19.70;58.90
19039;DHT22;9652;49.014;12.052;2023-10-08T07:22:03;19.70;59.00
19039;DHT22;9652;49.014;12.052;2023-10-08T07:24:43;19.80;59.00
19039;DHT22;9652;49.014;12.052;2023-10-08T07:27:12;19.80;58.90
19039;DHT22;9652;49.014;12.052;2023-10-08T07:29:39;19.80;58.80
19039;DHT22;9652;49.014;12.052;2023-10-08T07:32:06;19.80;58.70
19039;DHT22;9652;49.014;12.052;2023-10-08T07:34:37;19.90;58.70
19039;DHT22;9652;49.014;12.052;2023-10-08T07:37:04;19.90;59.00
19039;DHT22;9652;49.014;12.052;2023-10-08T07:39:32;20.00;58.60
19039;DHT22;9652;49.014;12.052;2023-10-08T07:42:09;20.00;58.50
19039;DHT22;9652;49.014;12.052;2023-10-08T07:44:38;20.00;58.50
19039;DHT22;9652;49.014;12.052;2023-10-08T07:47:05;20.10;58.50
19039;DHT22;9652;49.014;12.052;2023-10-08T07:49:36;20.00;58.30
19039;DHT22;9652;49.014;12.052;2023-10-08T07:52:03;20.10;58.30
19039;DHT22;9652;49.014;12.052;2023-10-08T07:54:31;20.10;58.30
19039;DHT22;9652;49.014;12.052;2023-10-08T07:57:00;20.10;58.40
19039;DHT22;9652;49.014;12.052;2023-10-08T07:59:35;20.20;58.50
19039;DHT22;9652;49.014;12.052;2023-10-08T08:02:06;20.20;58.50
19039;DHT22;9652;49.014;12.052;2023-10-08T08:04:35;20.30;58.40
19039;DHT22;9652;49.014;12.052;2023-10-08T08:07:03;20.30;58.40
19039;DHT22;9652;49.014;12.052;2023-10-08T08:09:31;20.30;58.30
19039;DHT22;9652;49.014;12.052;2023-10-08T08:12:05;20.40;58.30
19039;DHT22;9652;49.014;12.052;2023-10-08T08:14:37;20.40;58.20
19039;DHT22;9652;49.014;12.052;2023-10-08T08:17:09;20.40;58.10
19039;DHT22;9652;49.014;12.052;2023-10-08T08:19:47;20.50;58.20
19039;DHT22;9652;49.014;12.052;2023-10-08T08:22:16;20.50;58.20
19039;DHT22;9652;49.014;12.052;2023-10-08T08:24:47;20.60;58.30
19039;DHT22;9652;49.014;12.052;2023-10-08T08:27:18;20.60;58.20
19039;DHT22;9652;49.014;12.052;2023-10-08T08:29:57;20.60;58.20
19039;DHT22;9652;49.014;12.052;2023-10-08T08:32:37;20.70;58.30
19039;DHT22;9652;49.014;12.052;2023-10-08T08:35:06;20.70;58.40
19039;DHT22;9652;49.014;12.052;2023-10-08T08:37:35;20.80;58.40
19039;DHT22;9652;49.014;12.052;2023-10-08T08:40:04;20.90;58.40
19039;DHT22;9652;49.014;12.052;2023-10-08T08:42:34;20.90;58.40
19039;DHT22;9652;49.014;12.052;2023-10-08T08:45:04;21.00;58.40
19039;DHT22;9652;49.014;12.052;2023-10-08T08:47:39;21.10;58.50
19039;DHT22;9652;49.014;12.052;2023-10-08T08:50:08;21.20;58.60
19039;DHT22;9652;49.014;12.052;2023-10-08T08:52:35;21.30;58.70
19039;DHT22;9652;49.014;12.052;2023-10-08T08:55:04;21.30;58.50
19039;DHT22;9652;49.014;12.052;2023-10-08T08:57:40;21.40;58.30
19039;DHT22;9652;49.014;12.052;2023-10-08T09:00:11;21.50;58.30
19039;DHT22;9652;49.014;12.052;2023-10-08T09:02:41;21.60;58.20
19039;DHT22;9652;49.014;12.052;2023-10-08T09:05:10;21.60;58.10
19039;DHT22;9652;49.014;12.052;2023-10-08T09:07:56;21.70;58.10
19039;DHT22;9652;49.014;12.052;2023-10-08T09:10:24;21.90;58.00
19039;DHT22;9652;49.014;12.052;2023-10-08T09:12:54;22.00;57.90
19039;DHT22;9652;49.014;12.052;2023-10-08T09:15:24;21.90;57.70
19039;DHT22;9652;49.014;12.052;2023-10-08T09:17:53;22.10;57.60
19039;DHT22;9652;49.014;12.052;2023-10-08T09:20:21;22.10;57.40
19039;DHT22;9652;49.014;12.052;2023-10-08T09:23:05;22.20;57.30
19039;DHT22;9652;49.014;12.052;2023-10-08T09:25:38;22.30;56.80
19039;DHT22;9652;49.014;12.052;2023-10-08T09:28:05;22.30;57.10
19039;DHT22;9652;49.014;12.052;2023-10-08T09:30:34;22.30;57.10
19039;DHT22;9652;49.014;12.052;2023-10-08T09:33:06;22.40;57.00
19039;DHT22;9652;49.014;12.052;2023-10-08T09:35:35;22.50;57.00
19039;DHT22;9652;49.014;12.052;2023-10-08T09:38:03;22.60;57.00
19039;DHT22;9652;49.014;12.052;2023-10-08T09:40:36;22.70;56.70
19039;DHT22;9652;49.014;12.052;2023-10-08T09:43:04;22.70;56.40
19039;DHT22;9652;49.014;12.052;2023-10-08T09:45:34;22.80;56.30
19039;DHT22;9652;49.014;12.052;2023-10-08T09:48:06;22.80;56.10
19039;DHT22;9652;49.014;12.052;2023-10-08T09:50:41;22.80;55.80
19039;DHT22;9652;49.014;12.052;2023-10-08T09:53:09;22.80;55.70
19039;DHT22;9652;49.014;12.052;2023-10-08T09:55:45;22.80;56.00
19039;DHT22;9652;49.014;12.052;2023-10-08T09:58:17;22.60;55.80
19039;DHT22;9652;49.014;12.052;2023-10-08T10:00:45;22.70;56.00
19039;DHT22;9652;49.014;12.052;2023-10-08T10:03:16;22.60;56.10
19039;DHT22;9652;49.014;12.052;2023-10-08T10:05:45;22.70;56.10
19039;DHT22;9652;49.014;12.052;2023-10-08T10:08:15;22.80;56.10
19039;DHT22;9652;49.014;12.052;2023-10-08T10:10:43;22.80;56.10
19039;DHT22;9652;49.014;12.052;2023-10-08T10:13:15;22.80;56.10
19039;DHT22;9652;49.014;12.052;2023-10-08T10:15:43;22.80;56.00
19039;DHT22;9652;49.014;12.052;2023-10-08T10:18:13;22.80;56.00
19039;DHT22;9652;49.014;12.052;2023-10-08T10:20:45;22.80;56.00
19039;DHT22;9652;49.014;12.052;2023-10-08T10:23:37;22.80;55.90
19039;DHT22;9652;49.014;12.052;2023-10-08T10:26:21;22.80;55.50
19039;DHT22;9652;49.014;12.052;2023-10-08T10:29:20;22.80;55.60
19039;DHT22;9652;49.014;12.052;2023-10-08T10:31:49;22.80;55.40
19039;DHT22;9652;49.014;12.052;2023-10-08T10:34:22;22.80;55.60
19039;DHT22;9652;49.014;12.052;2023-10-08T10:36:54;22.80;55.60
19039;DHT22;9652;49.014;12.052;2023-10-08T10:39:25;22.80;55.60
19039;DHT22;9652;49.014;12.052;2023-10-08T10:41:55;22.90;56.00
19039;DHT22;9652;49.014;12.052;2023-10-08T10:44:27;22.90;56.00
19039;DHT22;9652;49.014;12.052;2023-10-08T10:46:56;23.00;56.10
19039;DHT22;9652;49.014;12.052;2023-10-08T10:49:39;23.10;56.00
19039;DHT22;9652;49.014;12.052;2023-10-08T10:52:14;23.20;55.40
19039;DHT22;9652;49.014;12.052;2023-10-08T10:54:51;23.30;55.50
19039;DHT22;9652;49.014;12.052;2023-10-08T10:57:25;23.30;55.30
19039;DHT22;9652;49.014;12.052;2023-10-08T11:00:02;23.40;55.00
19039;DHT22;9652;49.014;12.052;2023-10-08T11:02:51;23.50;54.90
19039;DHT22;9652;49.014;12.052;2023-10-08T11:05:23;23.50;55.00
19039;DHT22;9652;49.014;12.052;2023-10-08T11:07:55;23.50;54.90
19039;DHT22;9652;49.014;12.052;2023-10-08T11:10:26;23.60;54.80
19039;DHT22;9652;49.014;12.052;2023-10-08T11:12:56;23.60;54.80
19039;DHT22;9652;49.014;12.052;2023-10-08T11:15:26;23.60;54.40
19039;DHT22;9652;49.014;12.052;2023-10-08T11:18:07;23.70;54.50
19039;DHT22;9652;49.014;12.052;2023-10-08T11:20:36;23.70;54.30
19039;DHT22;9652;49.014;12.052;2023-10-08T11:23:05;23.70;55.10
19039;DHT22;9652;49.014;12.052;2023-10-08T11:25:52;23.70;54.70
19039;DHT22;9652;49.014;12.052;2023-10-08T11:28:20;23.80;54.60
19039;DHT22;9652;49.014;12.052;2023-10-08T11:30:50;23.90;54.70
19039;DHT22;9652;49.014;12.052;2023-10-08T11:33:19;23.90;54.40
19039;DHT22;9652;49.014;12.052;2023-10-08T11:36:01;24.00;54.20
19039;DHT22;9652;49.014;12.052;2023-10-08T11:38:38;24.00;53.80
19039;DHT22;9652;49.014;12.052;2023-10-08T11:41:11;24.00;53.70
19039;DHT22;9652;49.014;12.052;2023-10-08T11:43:49;24.10;53.80
19039;DHT22;9652;49.014;12.052;2023-10-08T11:46:21;24.00;53.90
19039;DHT22;9652;49.014;12.052;2023-10-08T11:48:51;24.10;54.10
19039;DHT22;9652;49.014;12.052;2023-10-08T11:51:19;24.00;54.30
19039;DHT22;9652;49.014;12.052;2023-10-08T11:53:50;24.10;54.30
19039;DHT22;9652;49.014;12.052;2023-10-08T11:56:19;24.20;54.50
19039;DHT22;9652;49.014;12.052;2023-10-08T11:58:49;24.30;54.20
19039;DHT22;9652;49.014;12.052;2023-10-08T12:01:17;24.30;54.00
19039;DHT22;9652;49.014;12.052;2023-10-08T12:03:44;24.40;53.90
19039;DHT22;9652;49.014;12.052;2023-10-08T12:06:11;24.40;53.80
19039;DHT22;9652;49.014;12.052;2023-10-08T12:08:45;24.40;53.80
19039;DHT22;9652;49.014;12.052;2023-10-08T12:11:13;24.50;53.70
19039;DHT22;9652;49.014;12.052;2023-10-08T12:13:41;24.50;53.50
19039;DHT22;9652;49.014;12.052;2023-10-08T12:16:13;24.50;54.00
19039;DHT22;9652;49.014;12.052;2023-10-08T12:18:47;24.40;53.30
19039;DHT22;9652;49.014;12.052;2023-10-08T12:21:19;24.40;53.50
19039;DHT22;9652;49.014;12.052;2023-10-08T12:23:48;24.40;53.40
19039;DHT22;9652;49.014;12.052;2023-10-08T12:26:17;24.40;53.30
19039;DHT22;9652;49.014;12.052;2023-10-08T12:28:45;24.40;53.30
19039;DHT22;9652;49.014;12.052;2023-10-08T12:31:14;24.30;53.30
19039;DHT22;9652;49.014;12.052;2023-10-08T12:33:42;24.30;53.50
19039;DHT22;9652;49.014;12.052;2023-10-08T12:36:11;24.30;53.80
19039;DHT22;9652;49.014;12.052;2023-10-08T12:38:39;24.30;53.80
19039;DHT22;9652;49.014;12.052;2023-10-08T12:41:09;24.40;53.70
19039;DHT22;9652;49.014;12.052;2023-10-08T12:43:41;24.40;53.60
19039;DHT22;9652;49.014;12.052;2023-10-08T12:46:12;24.40;53.60
19039;DHT22;9652;49.014;12.052;2023-10-08T12:48:44;24.40;53.40
19039;DHT22;9652;49.014;12.052;2023-10-08T12:51:16;24.40;53.30
19039;DHT22;9652;49.014;12.052;2023-10-08T12:53:44;24.40;53.20
19039;DHT22;9652;49.014;12.052;2023-10-08T12:56:26;24.40;53.20
19039;DHT22;9652;49.014;12.052;2023-10-08T12:59:01;24.20;53.10
19039;DHT22;9652;49.014;12.052;2023-10-08T13:01:32;24.20;53.10
19039;DHT22;9652;49.014;12.052;2023-10-08T13:04:01;24.10;53.30
19039;DHT22;9652;49.014;12.052;2023-10-08T13:06:33;24.00;53.50
19039;DHT22;9652;49.014;12.052;2023-10-08T13:09:03;24.00;53.60
19039;DHT22;9652;49.014;12.052;2023-10-08T13:11:39;24.00;53.70
19039;DHT22;9652;49.014;12.052;2023-10-08T13:14:08;23.90;53.80
19039;DHT22;9652;49.014;12.052;2023-10-08T13:16:36;23.90;53.90
19039;DHT22;9652;49.014;12.052;2023-10-08T13:19:04;24.00;54.10
19039;DHT22;9652;49.014;12.052;2023-10-08T13:21:34;23.80;54.10
19039;DHT22;9652;49.014;12.052;2023-10-08T13:24:02;23.90;54.10
19039;DHT22;9652;49.014;12.052;2023-10-08T13:26:35;23.80;54.10
19039;DHT22;9652;49.014;12.052;2023-10-08T13:29:04;23.80;54.30
19039;DHT22;9652;49.014;12.052;2023-10-08T13:31:34;23.80;55.00
19039;DHT22;9652;49.014;12.052;2023-10-08T13:34:02;23.80;54.40
19039;DHT22;9652;49.014;12.052;2023-10-08T13:36:34;23.90;54.50
19039;DHT22;9652;49.014;12.052;2023-10-08T13:39:04;23.90;54.40
19039;DHT22;9652;49.014;12.052;2023-10-08T13:41:35;24.00;54.40
19039;DHT22;9652;49.014;12.052;2023-10-08T13:44:05;23.90;54.30
19039;DHT22;9652;49.014;12.052;2023-10-08T13:46:33;23.90;54.30
19039;DHT22;9652;49.014;12.052;2023-10-08T13:49:02;23.90;54.40
19039;DHT22;9652;49.014;12.052;2023-10-08T13:51:31;23.90;54.40
19039;DHT22;9652;49.014;12.052;2023-10-08T13:54:00;23.90;54.30
19039;DHT22;9652;49.014;12.052;2023-10-08T13:56:32;23.90;54.30
19039;DHT22;9652;49.014;12.052;2023-10-08T13:59:05;23.90;54.50
19039;DHT22;9652;49.014;12.052;2023-10-08T14:01:39;23.90;54.60
19039;DHT22;9652;49.014;12.052;2023-10-08T14:04:09;24.00;54.80
19039;DHT22;9652;49.014;12.052;2023-10-08T14:06:37;24.00;54.70
19039;DHT22;9652;49.014;12.052;2023-10-08T14:09:06;24.10;54.80
19039;DHT22;9652;49.014;12.052;2023-10-08T14:11:38;24.20;55.30
19039;DHT22;9652;49.014;12.052;2023-10-08T14:14:06;24.30;54.50
19039;DHT22;9652;49.014;12.052;2023-10-08T14:16:38;24.40;54.20
19039;DHT22;9652;49.014;12.052;2023-10-08T14:19:08;24.40;54.10
19039;DHT22;9652;49.014;12.052;2023-10-08T14:21:38;24.40;53.80
19039;DHT22;9652;49.014;12.052;2023-10-08T14:24:15;24.40;53.60
19039;DHT22;9652;49.014;12.052;2023-10-08T14:26:42;24.30;53.30
19039;DHT22;9652;49.014;12.052;2023-10-08T14:29:14;24.20;53.20
19039;DHT22;9652;49.014;12.052;2023-10-08T14:31:42;24.10;53.10
19039;DHT22;9652;49.014;12.052;2023-10-08T14:34:14;24.00;53.30
19039;DHT22;9652;49.014;12.052;2023-10-08T14:37:07;23.90;53.30
19039;DHT22;9652;49.014;12.052;2023-10-08T14:39:52;23.80;53.30
19039;DHT22;9652;49.014;12.052;2023-10-08T14:42:37;23.70;53.30
19039;DHT22;9652;49.014;12.052;2023-10-08T14:45:25;23.50;53.30
19039;DHT22;9652;49.014;12.052;2023-10-08T14:47:53;23.40;53.50
19039;DHT22;9652;49.014;12.052;2023-10-08T14:50:21;23.20;53.60
19039;DHT22;9652;49.014;12.052;2023-10-08T14:52:49;23.10;53.70
19039;DHT22;9652;49.014;12.052;2023-10-08T14:55:16;23.00;53.90
19039;DHT22;9652;49.014;12.052;2023-10-08T14:57:47;22.80;54.00
19039;DHT22;9652;49.014;12.052;2023-10-08T15:00:17;22.70;54.10
19039;DHT22;9652;49.014;12.052;2023-10-08T15:02:52;22.70;54.30
19039;DHT22;9652;49.014;12.052;2023-10-08T15:05:20;22.60;54.40
19039;DHT22;9652;49.014;12.052;2023-10-08T15:07:48;22.60;54.50
19039;DHT22;9652;49.014;12.052;2023-10-08T15:10:17;22.50;54.60
19039;DHT22;9652;49.014;12.052;2023-10-08T15:12:44;22.40;54.80
19039;DHT22;9652;49.014;12.052;2023-10-08T15:15:11;22.30;54.80
19039;DHT22;9652;49.014;12.052;2023-10-08T15:17:42;22.30;55.00
19039;DHT22;9652;49.014;12.052;2023-10-08T15:20:12;22.30;55.10
19039;DHT22;9652;49.014;12.052;2023-10-08T15:22:42;22.20;55.00
19039;DHT22;9652;49.014;12.052;2023-10-08T15:25:11;22.20;55.00
19039;DHT22;9652;49.014;12.052;2023-10-08T15:27:38;22.10;54.90
19039;DHT22;9652;49.014;12.052;2023-10-08T15:30:08;22.10;54.90
19039;DHT22;9652;49.014;12.052;2023-10-08T15:32:38;22.00;54.90
19039;DHT22;9652;49.014;12.052;2023-10-08T15:35:07;21.90;55.00
19039;DHT22;9652;49.014;12.052;2023-10-08T15:37:37;21.80;55.00
19039;DHT22;9652;49.014;12.052;2023-10-08T15:40:06;21.80;55.10
19039;DHT22;9652;49.014;12.052;2023-10-08T15:42:43;21.70;55.20
19039;DHT22;9652;49.014;12.052;2023-10-08T15:45:13;21.60;55.10
19039;DHT22;9652;49.014;12.052;2023-10-08T15:47:41;21.50;55.20
19039;DHT22;9652;49.014;12.052;2023-10-08T15:50:08;21.40;55.30
19039;DHT22;9652;49.014;12.052;2023-10-08T15:52:38;21.30;55.40
19039;DHT22;9652;49.014;12.052;2023-10-08T15:55:06;21.40;55.60
19039;DHT22;9652;49.014;12.052;2023-10-08T15:57:36;21.20;56.20
19039;DHT22;9652;49.014;12.052;2023-10-08T16:00:05;21.10;55.80
19039;DHT22;9652;49.014;12.052;2023-10-08T16:02:33;21.00;55.90